CheckWX is a tool to help pilots better visualize weather data.  It is not intended as a substitute for an official pre-flight weather briefing.

04:41:14 UTC

KPVW TAF
Hale County Airport
Plainview, Texas, USA
KPVW 222336Z 2300/2324 17010KT P6SM SCT100

Aug-23@
00:00 UTC

Aug-23 @ 00:00 UTC

Aug-24@
00:00 UTC

Aug-24 @ 00:00 UTC

KPVW 222336Z 2300/2324 17010KT P6SM SCT100
Wind
  • 170° at 10 KTS
Cloud Levels
  • Scattered at 10,000' AGL